CPA423 RCKH-VHHH
Flight info
| Callsign | CPA423 |
|---|---|
| Flight time | 1h 9m |
| Altitude | 34000 |
| Route | PARAS2A PARAS T7 WP521 G581 ELATO V522 ABBEY |
| Aircraft | A359/H-SDE2E3GHIJ3J4J5LM1ORWXY/LB1D1 |
Departure
| Time | 2026-04-25 15:47 |
|---|---|
| Airport | Kaohsiung International Airport (RCKH) |
Arrival
| Time | 2026-04-25 16:56 |
|---|---|
| Airport | Hong Kong International Airport (VHHH) |
| Time | Latitude | Longitude | Altitude | Speed | Heading |
|---|---|---|---|---|---|
| 2026-04-25 15:33 | 22.57333 | 120.33867 | 34 ft | 0 kts | 102° |
| 2026-04-25 15:40 | 22.57333 | 120.33866 | 34 ft | 1 kts | 102° |
| 2026-04-25 15:40 | 22.57336 | 120.33836 | 33 ft | 3 kts | 97° |
| 2026-04-25 15:40 | 22.57337 | 120.33816 | 32 ft | 3 kts | 70° |
| 2026-04-25 15:41 | 22.57328 | 120.33799 | 30 ft | 3 kts | 49° |
| 2026-04-25 15:41 | 22.57314 | 120.33783 | 30 ft | 3 kts | 34° |
| 2026-04-25 15:41 | 22.57297 | 120.33774 | 33 ft | 3 kts | 8° |
| 2026-04-25 15:41 | 22.57289 | 120.33773 | 32 ft | 0 kts | 2° |
| 2026-04-25 15:42 | 22.57290 | 120.33773 | 32 ft | 0 kts | 2° |
| 2026-04-25 15:42 | 22.57290 | 120.33772 | 32 ft | 0 kts | 2° |
| 2026-04-25 15:44 | 22.57308 | 120.33773 | 30 ft | 6 kts | 1° |
| 2026-04-25 15:44 | 22.57366 | 120.33774 | 34 ft | 11 kts | 0° |
| 2026-04-25 15:45 | 22.57414 | 120.33741 | 34 ft | 9 kts | 292° |
| 2026-04-25 15:45 | 22.57466 | 120.33651 | 33 ft | 20 kts | 314° |
| 2026-04-25 15:45 | 22.57563 | 120.33552 | 33 ft | 20 kts | 318° |
| 2026-04-25 15:45 | 22.57601 | 120.33520 | 32 ft | 21 kts | 328° |
| 2026-04-25 15:46 | 22.57751 | 120.33590 | 32 ft | 14 kts | 88° |
| 2026-04-25 15:46 | 22.57743 | 120.33867 | 35 ft | 74 kts | 92° |
| 2026-04-25 15:46 | 22.57719 | 120.34692 | 38 ft | 143 kts | 92° |
| 2026-04-25 15:46 | 22.57667 | 120.35873 | 564 ft | 158 kts | 89° |
| 2026-04-25 15:47 | 22.57607 | 120.37040 | 1264 ft | 161 kts | 91° |
| 2026-04-25 15:47 | 22.57063 | 120.38144 | 1499 ft | 183 kts | 141° |
| 2026-04-25 15:47 | 22.55781 | 120.38506 | 1671 ft | 207 kts | 188° |
| 2026-04-25 15:47 | 22.54509 | 120.37746 | 2076 ft | 216 kts | 227° |
| 2026-04-25 15:48 | 22.53529 | 120.36515 | 2768 ft | 215 kts | 230° |
| 2026-04-25 15:48 | 22.52520 | 120.35322 | 3469 ft | 215 kts | 226° |
| 2026-04-25 15:48 | 22.51444 | 120.34187 | 4093 ft | 218 kts | 223° |
| 2026-04-25 15:48 | 22.50304 | 120.33077 | 4697 ft | 222 kts | 221° |
| 2026-04-25 15:49 | 22.49124 | 120.31981 | 5281 ft | 224 kts | 221° |
| 2026-04-25 15:49 | 22.47926 | 120.30894 | 5913 ft | 226 kts | 220° |
| 2026-04-25 15:49 | 22.46714 | 120.29807 | 6515 ft | 228 kts | 220° |
| 2026-04-25 15:49 | 22.45480 | 120.28709 | 6868 ft | 229 kts | 220° |
| 2026-04-25 15:50 | 22.44665 | 120.27986 | 6953 ft | 229 kts | 220° |
| 2026-04-25 15:50 | 22.43014 | 120.26525 | 6984 ft | 230 kts | 220° |
| 2026-04-25 15:50 | 22.41789 | 120.25442 | 6981 ft | 231 kts | 220° |
| 2026-04-25 15:50 | 22.40545 | 120.24343 | 6981 ft | 231 kts | 220° |
| 2026-04-25 15:51 | 22.39300 | 120.23244 | 6980 ft | 231 kts | 220° |
| 2026-04-25 15:51 | 22.38878 | 120.22872 | 6981 ft | 231 kts | 220° |
| 2026-04-25 15:51 | 22.36812 | 120.21049 | 7006 ft | 230 kts | 220° |
| 2026-04-25 15:51 | 22.35564 | 120.19949 | 7283 ft | 233 kts | 220° |
| 2026-04-25 15:52 | 22.34307 | 120.18840 | 7906 ft | 232 kts | 220° |
| 2026-04-25 15:52 | 22.33058 | 120.17741 | 8553 ft | 232 kts | 220° |
| 2026-04-25 15:52 | 22.31806 | 120.16637 | 9180 ft | 232 kts | 221° |
| 2026-04-25 15:52 | 22.30555 | 120.15527 | 9800 ft | 233 kts | 222° |
| 2026-04-25 15:53 | 22.29525 | 120.14189 | 10317 ft | 233 kts | 244° |
| 2026-04-25 15:53 | 22.28989 | 120.12491 | 10606 ft | 247 kts | 256° |
| 2026-04-25 15:53 | 22.28729 | 120.11267 | 10760 ft | 258 kts | 257° |
| 2026-04-25 15:53 | 22.28199 | 120.08630 | 11027 ft | 280 kts | 257° |
| 2026-04-25 15:54 | 22.27766 | 120.06523 | 11262 ft | 295 kts | 257° |
| 2026-04-25 15:54 | 22.27308 | 120.04340 | 11478 ft | 308 kts | 257° |
| 2026-04-25 15:54 | 22.26819 | 120.02031 | 11686 ft | 321 kts | 257° |
| 2026-04-25 15:54 | 22.26309 | 119.99639 | 11896 ft | 333 kts | 257° |
| 2026-04-25 15:55 | 22.25952 | 119.97970 | 12040 ft | 340 kts | 257° |
| 2026-04-25 15:55 | 22.25242 | 119.94636 | 12553 ft | 346 kts | 257° |
| 2026-04-25 15:55 | 22.24699 | 119.92095 | 13003 ft | 347 kts | 257° |
| 2026-04-25 15:55 | 22.24153 | 119.89545 | 13435 ft | 349 kts | 257° |
| 2026-04-25 15:56 | 22.23609 | 119.87012 | 13878 ft | 350 kts | 257° |
| 2026-04-25 15:56 | 22.23057 | 119.84440 | 14253 ft | 352 kts | 257° |
| 2026-04-25 15:56 | 22.22501 | 119.81851 | 14592 ft | 356 kts | 257° |
| 2026-04-25 15:56 | 22.21936 | 119.79226 | 14845 ft | 361 kts | 257° |
| 2026-04-25 15:57 | 22.21365 | 119.76569 | 15233 ft | 362 kts | 257° |
| 2026-04-25 15:57 | 22.20987 | 119.74811 | 15488 ft | 363 kts | 257° |
| 2026-04-25 15:57 | 22.20411 | 119.72153 | 15886 ft | 365 kts | 257° |
| 2026-04-25 15:57 | 22.19637 | 119.68608 | 16389 ft | 367 kts | 257° |
| 2026-04-25 15:58 | 22.19242 | 119.66794 | 16640 ft | 368 kts | 257° |
| 2026-04-25 15:58 | 22.18663 | 119.64130 | 17012 ft | 370 kts | 257° |
| 2026-04-25 15:58 | 22.18072 | 119.61405 | 17389 ft | 372 kts | 257° |
| 2026-04-25 15:58 | 22.17481 | 119.58678 | 17757 ft | 373 kts | 257° |
| 2026-04-25 15:59 | 22.16893 | 119.55964 | 18133 ft | 375 kts | 258° |
| 2026-04-25 15:59 | 22.16353 | 119.53199 | 18469 ft | 377 kts | 262° |
| 2026-04-25 15:59 | 22.16094 | 119.50387 | 18819 ft | 377 kts | 266° |
| 2026-04-25 15:59 | 22.15903 | 119.46641 | 19286 ft | 378 kts | 267° |
| 2026-04-25 16:00 | 22.15840 | 119.44717 | 19502 ft | 378 kts | 268° |
| 2026-04-25 16:00 | 22.15790 | 119.42833 | 19731 ft | 379 kts | 268° |
| 2026-04-25 16:00 | 22.15705 | 119.39056 | 20174 ft | 380 kts | 268° |
| 2026-04-25 16:00 | 22.15643 | 119.36204 | 20496 ft | 381 kts | 268° |
| 2026-04-25 16:01 | 22.15575 | 119.33336 | 20835 ft | 382 kts | 268° |
| 2026-04-25 16:01 | 22.15502 | 119.30457 | 21140 ft | 384 kts | 268° |
| 2026-04-25 16:01 | 22.15424 | 119.27573 | 21447 ft | 386 kts | 268° |
| 2026-04-25 16:01 | 22.15344 | 119.24706 | 21686 ft | 389 kts | 268° |
| 2026-04-25 16:02 | 22.15260 | 119.21785 | 21991 ft | 390 kts | 268° |
| 2026-04-25 16:02 | 22.15175 | 119.18845 | 22323 ft | 390 kts | 268° |
| 2026-04-25 16:02 | 22.15092 | 119.15909 | 22620 ft | 391 kts | 267° |
| 2026-04-25 16:02 | 22.15006 | 119.12964 | 22920 ft | 392 kts | 267° |
| 2026-04-25 16:03 | 22.14956 | 119.10053 | 23197 ft | 394 kts | 270° |
| 2026-04-25 16:03 | 22.15156 | 119.07096 | 23489 ft | 396 kts | 274° |
| 2026-04-25 16:03 | 22.15450 | 119.04140 | 23746 ft | 397 kts | 275° |
| 2026-04-25 16:03 | 22.15789 | 119.01182 | 23997 ft | 398 kts | 275° |
| 2026-04-25 16:04 | 22.16152 | 118.98217 | 24243 ft | 399 kts | 276° |
| 2026-04-25 16:04 | 22.16524 | 118.95256 | 24519 ft | 399 kts | 276° |
| 2026-04-25 16:04 | 22.16894 | 118.92279 | 24844 ft | 398 kts | 276° |
| 2026-04-25 16:04 | 22.17254 | 118.89322 | 25105 ft | 399 kts | 275° |
| 2026-04-25 16:05 | 22.17607 | 118.86384 | 25341 ft | 400 kts | 275° |
| 2026-04-25 16:05 | 22.17962 | 118.83402 | 25586 ft | 401 kts | 275° |
| 2026-04-25 16:05 | 22.18675 | 118.77397 | 26104 ft | 403 kts | 275° |
| 2026-04-25 16:06 | 22.19027 | 118.74422 | 26371 ft | 404 kts | 275° |
| 2026-04-25 16:06 | 22.19384 | 118.71402 | 26644 ft | 405 kts | 275° |
| 2026-04-25 16:06 | 22.19742 | 118.68370 | 26921 ft | 406 kts | 275° |
| 2026-04-25 16:06 | 22.20098 | 118.65340 | 27197 ft | 407 kts | 275° |
| 2026-04-25 16:07 | 22.20450 | 118.62338 | 27475 ft | 408 kts | 275° |
| 2026-04-25 16:07 | 22.20692 | 118.60278 | 27668 ft | 409 kts | 275° |
| 2026-04-25 16:07 | 22.21167 | 118.56222 | 28049 ft | 411 kts | 275° |
| 2026-04-25 16:07 | 22.21527 | 118.53146 | 28331 ft | 412 kts | 275° |
| 2026-04-25 16:08 | 22.21883 | 118.50107 | 28616 ft | 413 kts | 275° |
| 2026-04-25 16:08 | 22.22246 | 118.47018 | 28906 ft | 415 kts | 275° |
| 2026-04-25 16:08 | 22.22609 | 118.43912 | 29205 ft | 416 kts | 275° |
| 2026-04-25 16:08 | 22.22965 | 118.40849 | 29510 ft | 418 kts | 275° |
| 2026-04-25 16:09 | 22.23329 | 118.37718 | 29804 ft | 419 kts | 274° |
| 2026-04-25 16:09 | 22.23692 | 118.34585 | 30082 ft | 421 kts | 275° |
| 2026-04-25 16:09 | 22.24057 | 118.31436 | 30333 ft | 423 kts | 275° |
| 2026-04-25 16:09 | 22.24423 | 118.28272 | 30622 ft | 424 kts | 275° |
| 2026-04-25 16:10 | 22.24786 | 118.25141 | 30926 ft | 425 kts | 275° |
| 2026-04-25 16:10 | 22.25152 | 118.21974 | 31232 ft | 425 kts | 275° |
| 2026-04-25 16:10 | 22.25519 | 118.18792 | 31507 ft | 426 kts | 275° |
| 2026-04-25 16:10 | 22.25885 | 118.15617 | 31782 ft | 427 kts | 275° |
| 2026-04-25 16:11 | 22.26253 | 118.12422 | 32044 ft | 428 kts | 275° |
| 2026-04-25 16:11 | 22.26617 | 118.09221 | 32304 ft | 429 kts | 274° |
| 2026-04-25 16:11 | 22.26967 | 118.06046 | 32612 ft | 429 kts | 275° |
| 2026-04-25 16:11 | 22.27312 | 118.02871 | 33207 ft | 421 kts | 274° |
| 2026-04-25 16:12 | 22.27651 | 117.99741 | 33657 ft | 420 kts | 274° |
| 2026-04-25 16:12 | 22.28000 | 117.96590 | 33822 ft | 423 kts | 275° |
| 2026-04-25 16:12 | 22.28360 | 117.93415 | 33979 ft | 427 kts | 275° |
| 2026-04-25 16:13 | 22.29085 | 117.87077 | 34033 ft | 425 kts | 275° |
| 2026-04-25 16:13 | 22.29809 | 117.80743 | 34032 ft | 425 kts | 275° |
| 2026-04-25 16:14 | 22.30536 | 117.74397 | 34031 ft | 425 kts | 275° |
| 2026-04-25 16:14 | 22.31279 | 117.68060 | 34034 ft | 425 kts | 275° |
| 2026-04-25 16:15 | 22.32003 | 117.61761 | 34034 ft | 425 kts | 275° |
| 2026-04-25 16:15 | 22.32718 | 117.55415 | 34037 ft | 425 kts | 275° |
| 2026-04-25 16:16 | 22.33243 | 117.49084 | 34036 ft | 423 kts | 269° |
| 2026-04-25 16:16 | 22.33217 | 117.42705 | 34040 ft | 425 kts | 268° |
| 2026-04-25 16:17 | 22.33100 | 117.36339 | 34039 ft | 427 kts | 268° |
| 2026-04-25 16:17 | 22.32970 | 117.29924 | 34040 ft | 427 kts | 268° |
| 2026-04-25 16:18 | 22.32846 | 117.23509 | 34040 ft | 426 kts | 268° |
| 2026-04-25 16:18 | 22.32724 | 117.17103 | 34048 ft | 426 kts | 268° |
| 2026-04-25 16:19 | 22.32600 | 117.10698 | 34040 ft | 430 kts | 268° |
| 2026-04-25 16:19 | 22.32473 | 117.04217 | 34039 ft | 432 kts | 268° |
| 2026-04-25 16:20 | 22.32277 | 116.94479 | 34040 ft | 432 kts | 268° |
| 2026-04-25 16:21 | 22.32075 | 116.84787 | 34040 ft | 432 kts | 269° |
| 2026-04-25 16:21 | 22.31937 | 116.78275 | 34032 ft | 431 kts | 268° |
| 2026-04-25 16:22 | 22.31798 | 116.71873 | 34041 ft | 426 kts | 268° |
| 2026-04-25 16:22 | 22.31657 | 116.65471 | 34041 ft | 425 kts | 268° |
| 2026-04-25 16:23 | 22.31514 | 116.59080 | 34048 ft | 425 kts | 268° |
| 2026-04-25 16:23 | 22.31368 | 116.52675 | 34044 ft | 427 kts | 269° |
| 2026-04-25 16:24 | 22.31221 | 116.46298 | 34042 ft | 428 kts | 269° |
| 2026-04-25 16:24 | 22.31069 | 116.39847 | 34042 ft | 428 kts | 269° |
| 2026-04-25 16:25 | 22.30915 | 116.33415 | 34042 ft | 428 kts | 268° |
| 2026-04-25 16:25 | 22.30759 | 116.27018 | 33883 ft | 423 kts | 269° |
| 2026-04-25 16:26 | 22.30601 | 116.20591 | 33981 ft | 433 kts | 269° |
| 2026-04-25 16:26 | 22.30439 | 116.14119 | 34002 ft | 431 kts | 269° |
| 2026-04-25 16:26 | 22.30356 | 116.10866 | 33865 ft | 433 kts | 269° |
| 2026-04-25 16:27 | 22.30272 | 116.07607 | 33602 ft | 435 kts | 269° |
| 2026-04-25 16:27 | 22.30186 | 116.04336 | 33347 ft | 437 kts | 268° |
| 2026-04-25 16:27 | 22.30099 | 116.01036 | 33057 ft | 438 kts | 269° |
| 2026-04-25 16:27 | 22.30012 | 115.97762 | 32381 ft | 435 kts | 269° |
| 2026-04-25 16:28 | 22.29926 | 115.94504 | 31598 ft | 434 kts | 269° |
| 2026-04-25 16:28 | 22.29840 | 115.91266 | 30785 ft | 435 kts | 269° |
| 2026-04-25 16:28 | 22.29752 | 115.87989 | 29921 ft | 438 kts | 269° |
| 2026-04-25 16:28 | 22.29663 | 115.84697 | 28966 ft | 439 kts | 269° |
| 2026-04-25 16:29 | 22.29575 | 115.81404 | 28336 ft | 435 kts | 269° |
| 2026-04-25 16:29 | 22.29491 | 115.78164 | 27773 ft | 429 kts | 269° |
| 2026-04-25 16:29 | 22.29407 | 115.74961 | 27168 ft | 424 kts | 269° |
| 2026-04-25 16:29 | 22.29323 | 115.71786 | 26559 ft | 420 kts | 269° |
| 2026-04-25 16:30 | 22.29239 | 115.68666 | 25975 ft | 417 kts | 269° |
| 2026-04-25 16:30 | 22.29158 | 115.65493 | 25508 ft | 430 kts | 269° |
| 2026-04-25 16:30 | 22.29030 | 115.62226 | 25360 ft | 440 kts | 266° |
| 2026-04-25 16:30 | 22.28567 | 115.58941 | 25259 ft | 442 kts | 259° |
| 2026-04-25 16:31 | 22.27855 | 115.55715 | 25032 ft | 441 kts | 257° |
| 2026-04-25 16:31 | 22.27084 | 115.52502 | 24800 ft | 440 kts | 257° |
| 2026-04-25 16:31 | 22.26312 | 115.49340 | 24562 ft | 439 kts | 257° |
| 2026-04-25 16:31 | 22.25529 | 115.46155 | 24335 ft | 438 kts | 256° |
| 2026-04-25 16:32 | 22.24746 | 115.42984 | 24106 ft | 435 kts | 256° |
| 2026-04-25 16:32 | 22.23968 | 115.39835 | 23893 ft | 433 kts | 256° |
| 2026-04-25 16:32 | 22.23189 | 115.36689 | 23674 ft | 432 kts | 256° |
| 2026-04-25 16:32 | 22.22411 | 115.33549 | 23427 ft | 431 kts | 256° |
| 2026-04-25 16:33 | 22.21645 | 115.30464 | 23036 ft | 425 kts | 256° |
| 2026-04-25 16:33 | 22.20884 | 115.27407 | 22444 ft | 419 kts | 256° |
| 2026-04-25 16:33 | 22.20132 | 115.24379 | 21838 ft | 414 kts | 256° |
| 2026-04-25 16:33 | 22.19388 | 115.21390 | 21226 ft | 409 kts | 256° |
| 2026-04-25 16:34 | 22.18652 | 115.18435 | 20614 ft | 406 kts | 257° |
| 2026-04-25 16:34 | 22.17922 | 115.15506 | 20011 ft | 403 kts | 257° |
| 2026-04-25 16:34 | 22.17198 | 115.12600 | 19384 ft | 400 kts | 257° |
| 2026-04-25 16:34 | 22.16483 | 115.09734 | 18764 ft | 398 kts | 257° |
| 2026-04-25 16:35 | 22.15763 | 115.06850 | 18129 ft | 397 kts | 257° |
| 2026-04-25 16:35 | 22.15045 | 115.03979 | 17451 ft | 395 kts | 257° |
| 2026-04-25 16:35 | 22.14327 | 115.01113 | 16836 ft | 392 kts | 257° |
| 2026-04-25 16:35 | 22.13619 | 114.98284 | 16187 ft | 390 kts | 257° |
| 2026-04-25 16:36 | 22.12912 | 114.95467 | 15554 ft | 388 kts | 257° |
| 2026-04-25 16:36 | 22.12684 | 114.94558 | 15334 ft | 388 kts | 257° |
| 2026-04-25 16:36 | 22.11515 | 114.89897 | 14276 ft | 386 kts | 257° |
| 2026-04-25 16:36 | 22.10814 | 114.87105 | 13603 ft | 385 kts | 257° |
| 2026-04-25 16:37 | 22.10113 | 114.84313 | 12914 ft | 383 kts | 257° |
| 2026-04-25 16:37 | 22.09419 | 114.81549 | 12271 ft | 381 kts | 257° |
| 2026-04-25 16:37 | 22.08726 | 114.78797 | 11615 ft | 379 kts | 257° |
| 2026-04-25 16:37 | 22.08037 | 114.76065 | 10979 ft | 377 kts | 257° |
| 2026-04-25 16:38 | 22.07366 | 114.73408 | 10763 ft | 361 kts | 257° |
| 2026-04-25 16:38 | 22.06724 | 114.70872 | 10642 ft | 342 kts | 257° |
| 2026-04-25 16:38 | 22.06114 | 114.68463 | 10545 ft | 324 kts | 256° |
| 2026-04-25 16:38 | 22.05535 | 114.66171 | 10419 ft | 310 kts | 256° |
| 2026-04-25 16:39 | 22.04979 | 114.63980 | 10280 ft | 297 kts | 256° |
| 2026-04-25 16:39 | 22.04447 | 114.61872 | 10140 ft | 286 kts | 256° |
| 2026-04-25 16:39 | 22.03937 | 114.59865 | 10021 ft | 276 kts | 257° |
| 2026-04-25 16:39 | 22.03433 | 114.57871 | 9733 ft | 280 kts | 256° |
| 2026-04-25 16:40 | 22.02917 | 114.55788 | 9398 ft | 290 kts | 257° |
| 2026-04-25 16:40 | 22.02571 | 114.53666 | 9041 ft | 285 kts | 265° |
| 2026-04-25 16:40 | 22.02387 | 114.51544 | 8566 ft | 284 kts | 266° |
| 2026-04-25 16:40 | 22.02235 | 114.49433 | 8180 ft | 281 kts | 266° |
| 2026-04-25 16:41 | 22.02098 | 114.47359 | 7798 ft | 278 kts | 266° |
| 2026-04-25 16:41 | 22.02052 | 114.46661 | 7684 ft | 276 kts | 266° |
| 2026-04-25 16:41 | 22.01750 | 114.41205 | 6679 ft | 269 kts | 266° |
| 2026-04-25 16:42 | 22.01657 | 114.39191 | 6244 ft | 270 kts | 266° |
| 2026-04-25 16:42 | 22.01564 | 114.37060 | 6008 ft | 297 kts | 266° |
| 2026-04-25 16:42 | 22.01474 | 114.34828 | 5971 ft | 305 kts | 267° |
| 2026-04-25 16:42 | 22.01376 | 114.32534 | 5993 ft | 306 kts | 266° |
| 2026-04-25 16:43 | 22.01279 | 114.30243 | 5994 ft | 305 kts | 266° |
| 2026-04-25 16:43 | 22.01188 | 114.27962 | 5995 ft | 304 kts | 266° |
| 2026-04-25 16:43 | 22.01097 | 114.25675 | 5994 ft | 304 kts | 267° |
| 2026-04-25 16:43 | 22.01010 | 114.23411 | 5995 ft | 297 kts | 267° |
| 2026-04-25 16:44 | 22.01172 | 114.21296 | 6005 ft | 278 kts | 282° |
| 2026-04-25 16:44 | 22.01682 | 114.19313 | 6002 ft | 272 kts | 286° |
| 2026-04-25 16:44 | 22.02259 | 114.17375 | 5749 ft | 269 kts | 287° |
| 2026-04-25 16:44 | 22.02838 | 114.15439 | 5243 ft | 271 kts | 287° |
| 2026-04-25 16:45 | 22.03218 | 114.14154 | 4933 ft | 272 kts | 287° |
| 2026-04-25 16:45 | 22.03789 | 114.12210 | 4503 ft | 271 kts | 287° |
| 2026-04-25 16:45 | 22.04356 | 114.10271 | 4126 ft | 269 kts | 287° |
| 2026-04-25 16:45 | 22.04916 | 114.08344 | 4008 ft | 270 kts | 287° |
| 2026-04-25 16:46 | 22.05658 | 114.05778 | 3993 ft | 270 kts | 287° |
| 2026-04-25 16:46 | 22.06098 | 114.04518 | 3995 ft | 271 kts | 292° |
| 2026-04-25 16:46 | 22.06933 | 114.02686 | 3997 ft | 272 kts | 296° |
| 2026-04-25 16:46 | 22.07514 | 114.01489 | 3996 ft | 272 kts | 296° |
| 2026-04-25 16:47 | 22.08698 | 113.99064 | 3994 ft | 272 kts | 297° |
| 2026-04-25 16:47 | 22.09566 | 113.97280 | 3990 ft | 272 kts | 297° |
| 2026-04-25 16:47 | 22.10439 | 113.95473 | 3995 ft | 270 kts | 297° |
| 2026-04-25 16:47 | 22.11313 | 113.93673 | 3991 ft | 271 kts | 296° |
| 2026-04-25 16:48 | 22.12192 | 113.91873 | 3994 ft | 268 kts | 297° |
| 2026-04-25 16:48 | 22.13024 | 113.90156 | 4000 ft | 249 kts | 296° |
| 2026-04-25 16:48 | 22.13800 | 113.88556 | 4003 ft | 232 kts | 297° |
| 2026-04-25 16:48 | 22.14527 | 113.87061 | 3905 ft | 220 kts | 296° |
| 2026-04-25 16:49 | 22.15246 | 113.85589 | 3500 ft | 225 kts | 297° |
| 2026-04-25 16:49 | 22.15975 | 113.84073 | 3142 ft | 229 kts | 297° |
| 2026-04-25 16:49 | 22.16702 | 113.82538 | 2995 ft | 236 kts | 296° |
| 2026-04-25 16:49 | 22.17455 | 113.80945 | 2988 ft | 241 kts | 296° |
| 2026-04-25 16:50 | 22.18236 | 113.79295 | 2985 ft | 250 kts | 296° |
| 2026-04-25 16:50 | 22.19026 | 113.77621 | 2986 ft | 250 kts | 297° |
| 2026-04-25 16:50 | 22.19818 | 113.75939 | 2720 ft | 249 kts | 297° |
| 2026-04-25 16:50 | 22.20576 | 113.74320 | 2573 ft | 239 kts | 296° |
| 2026-04-25 16:51 | 22.21447 | 113.72845 | 2422 ft | 229 kts | 316° |
| 2026-04-25 16:51 | 22.22784 | 113.72034 | 2282 ft | 216 kts | 349° |
| 2026-04-25 16:51 | 22.24203 | 113.72155 | 2141 ft | 201 kts | 27° |
| 2026-04-25 16:51 | 22.24953 | 113.72700 | 2051 ft | 192 kts | 43° |
| 2026-04-25 16:52 | 22.26034 | 113.74176 | 1698 ft | 186 kts | 63° |
| 2026-04-25 16:52 | 22.26495 | 113.75464 | 1516 ft | 182 kts | 73° |
| 2026-04-25 16:52 | 22.26899 | 113.76741 | 1487 ft | 182 kts | 72° |
| 2026-04-25 16:52 | 22.27315 | 113.78028 | 1493 ft | 181 kts | 71° |
| 2026-04-25 16:53 | 22.28148 | 113.80598 | 1492 ft | 181 kts | 72° |
| 2026-04-25 16:53 | 22.28552 | 113.81856 | 1466 ft | 170 kts | 72° |
| 2026-04-25 16:53 | 22.28926 | 113.83023 | 1253 ft | 162 kts | 72° |
| 2026-04-25 16:54 | 22.29285 | 113.84146 | 1021 ft | 152 kts | 72° |
| 2026-04-25 16:54 | 22.29619 | 113.85185 | 809 ft | 143 kts | 70° |
| 2026-04-25 16:54 | 22.29926 | 113.86152 | 692 ft | 130 kts | 70° |
| 2026-04-25 16:54 | 22.30234 | 113.87054 | 578 ft | 127 kts | 71° |
| 2026-04-25 16:55 | 22.30490 | 113.87965 | 424 ft | 128 kts | 69° |
| 2026-04-25 16:55 | 22.30792 | 113.88860 | 284 ft | 129 kts | 69° |
| 2026-04-25 16:55 | 22.31087 | 113.89768 | 104 ft | 126 kts | 72° |
| 2026-04-25 16:55 | 22.31368 | 113.90633 | 41 ft | 111 kts | 71° |
| 2026-04-25 16:56 | 22.31543 | 113.91186 | 42 ft | 46 kts | 71° |
| 2026-04-25 16:56 | 22.31630 | 113.91456 | 42 ft | 29 kts | 72° |
| 2026-04-25 16:56 | 22.31657 | 113.91668 | 42 ft | 29 kts | 92° |
| 2026-04-25 16:56 | 22.31638 | 113.91797 | 42 ft | 10 kts | 108° |
| 2026-04-25 16:57 | 22.31618 | 113.91862 | 42 ft | 10 kts | 95° |
| 2026-04-25 16:57 | 22.31614 | 113.91915 | 42 ft | 12 kts | 94° |
| 2026-04-25 16:57 | 22.31603 | 113.92026 | 42 ft | 7 kts | 131° |
| 2026-04-25 16:57 | 22.31597 | 113.92030 | 42 ft | 1 kts | 146° |
| 2026-04-25 16:58 | 22.31585 | 113.92035 | 42 ft | 2 kts | 158° |
| 2026-04-25 16:58 | 22.31560 | 113.92044 | 42 ft | 8 kts | 161° |
| 2026-04-25 16:58 | 22.31473 | 113.92075 | 40 ft | 9 kts | 161° |
| 2026-04-25 16:58 | 22.31413 | 113.92121 | 42 ft | 24 kts | 121° |
| 2026-04-25 16:59 | 22.31362 | 113.92250 | 42 ft | 18 kts | 115° |
| 2026-04-25 16:59 | 22.31304 | 113.92380 | 42 ft | 20 kts | 115° |
| 2026-04-25 16:59 | 22.31238 | 113.92500 | 42 ft | 13 kts | 149° |
| 2026-04-25 16:59 | 22.31175 | 113.92496 | 42 ft | 10 kts | 193° |
| 2026-04-25 17:00 | 22.31112 | 113.92468 | 42 ft | 6 kts | 205° |
| 2026-04-25 17:00 | 22.31063 | 113.92450 | 41 ft | 6 kts | 178° |
| 2026-04-25 17:00 | 22.31045 | 113.92469 | 41 ft | 5 kts | 127° |
| 2026-04-25 17:00 | 22.31023 | 113.92511 | 41 ft | 5 kts | 117° |
| 2026-04-25 17:01 | 22.31014 | 113.92530 | 41 ft | 3 kts | 116° |
| 2026-04-25 17:01 | 22.31013 | 113.92533 | 41 ft | 0 kts | 116° |
| 2026-04-25 17:03 | 22.31014 | 113.92530 | 41 ft | 1 kts | 116° |
| 2026-04-25 17:04 | 22.31015 | 113.92528 | 41 ft | 0 kts | 116° |